createdAt,value
2017-07-10T05:32:02.005Z,1456
2017-07-10T05:32:27.473Z,1468
2017-07-10T05:32:52.947Z,1476
2017-07-10T05:33:18.424Z,1484
2017-07-10T05:33:43.901Z,1492
2017-07-10T05:34:09.349Z,1504
2017-07-10T05:34:34.809Z,1520
2017-07-10T05:35:00.262Z,1536
2017-07-10T05:35:25.698Z,1548
2017-07-10T05:35:51.184Z,1564
2017-07-10T05:36:16.645Z,1584
2017-07-10T05:36:42.096Z,1604
2017-07-10T05:37:07.580Z,1628
2017-07-10T05:37:33.042Z,1648
2017-07-10T05:37:58.533Z,1672
2017-07-10T05:38:23.992Z,1700
2017-07-10T05:38:49.454Z,1724
2017-07-10T05:39:14.913Z,1752
2017-07-10T05:39:40.413Z,1776
2017-07-10T05:40:05.889Z,1800
2017-07-10T05:40:31.336Z,1828
2017-07-10T05:40:56.809Z,1852
2017-07-10T05:41:22.260Z,1876
2017-07-10T05:41:47.725Z,1900
2017-07-10T05:42:13.179Z,1920
2017-07-10T05:42:38.645Z,1936
2017-07-10T05:43:04.106Z,1956
2017-07-10T05:43:29.565Z,1964
2017-07-10T05:43:55.032Z,1968
2017-07-10T05:44:20.499Z,1972
2017-07-10T05:44:45.959Z,1976
2017-07-10T05:45:11.411Z,1980
2017-07-10T05:45:36.875Z,1984
2017-07-10T05:46:02.342Z,1984
2017-07-10T05:46:27.793Z,1984
2017-07-10T05:46:53.285Z,1988
2017-07-10T05:47:18.734Z,1992
2017-07-10T05:47:44.224Z,1992
2017-07-10T05:48:09.697Z,1992
2017-07-10T05:48:35.126Z,2000
2017-07-10T05:49:00.600Z,2004
2017-07-10T05:49:26.078Z,2012
2017-07-10T05:49:51.551Z,2016
2017-07-10T05:50:16.999Z,2024
2017-07-10T05:50:42.499Z,2028
2017-07-10T05:51:08.004Z,2028
2017-07-10T05:51:33.465Z,2032
2017-07-10T05:51:58.940Z,2036
2017-07-10T05:52:24.432Z,2032
2017-07-10T05:52:49.899Z,2032
2017-07-10T05:53:15.384Z,2028
2017-07-10T05:53:40.866Z,2028
2017-07-10T05:54:06.320Z,2028
2017-07-10T05:54:31.810Z,2028
2017-07-10T05:54:57.262Z,2036
2017-07-10T05:55:22.714Z,2044
2017-07-10T05:55:48.203Z,2060
2017-07-10T05:56:13.645Z,2068
2017-07-10T05:56:39.109Z,2080
2017-07-10T05:57:04.576Z,2092
2017-07-10T05:57:30.047Z,2100
2017-07-10T05:57:55.499Z,2112
2017-07-10T05:58:20.970Z,2120
2017-07-10T05:58:46.481Z,2124
2017-07-10T05:59:11.989Z,2136
2017-07-10T05:59:37.510Z,2144
2017-07-10T06:00:02.964Z,2156
2017-07-10T06:00:28.441Z,2168
2017-07-10T06:00:53.956Z,2180
2017-07-10T06:01:19.412Z,2192
2017-07-10T06:01:44.917Z,2212
2017-07-10T06:02:10.378Z,2228
2017-07-10T06:02:35.853Z,2248
2017-07-10T06:03:01.308Z,2272
2017-07-10T06:03:26.790Z,2292
2017-07-10T06:03:52.265Z,2312
2017-07-10T06:04:17.723Z,2332
2017-07-10T06:04:43.188Z,2352
2017-07-10T06:05:08.648Z,2388
2017-07-10T06:05:34.112Z,2404
2017-07-10T06:05:59.571Z,2424
2017-07-10T06:06:25.017Z,2444
2017-07-10T06:07:48.530Z,2516
2017-07-10T06:08:13.999Z,2532
2017-07-10T06:08:39.482Z,2552
2017-07-10T06:09:04.954Z,2560
2017-07-10T06:09:30.437Z,2572
2017-07-10T06:09:55.895Z,2580
2017-07-10T06:10:21.401Z,2584
2017-07-10T06:10:46.845Z,2592
2017-07-10T06:11:12.348Z,2592
2017-07-10T06:11:37.835Z,2580
2017-07-10T06:12:03.307Z,2564
2017-07-10T06:12:28.760Z,2528
2017-07-10T06:12:54.231Z,2488
2017-07-10T06:13:19.696Z,2460
2017-07-10T06:13:45.177Z,2444
2017-07-10T06:14:10.631Z,2444
2017-07-10T06:14:36.137Z,2428
2017-07-10T06:15:01.601Z,2412
2017-07-10T06:15:27.082Z,2400
2017-07-10T06:15:52.572Z,2404
2017-07-10T06:16:18.075Z,2416
2017-07-10T06:16:43.553Z,2424
2017-07-10T06:17:09.033Z,2436
2017-07-10T06:17:34.511Z,2440
2017-07-10T06:17:59.975Z,2448
2017-07-10T06:18:25.462Z,2460
2017-07-10T06:18:50.928Z,2460
2017-07-10T06:19:16.416Z,2460
2017-07-10T06:19:41.866Z,2440
2017-07-10T06:20:07.341Z,2448
2017-07-10T06:20:32.818Z,2444
2017-07-10T06:20:58.287Z,2440
2017-07-10T06:21:23.762Z,2436
2017-07-10T06:21:49.245Z,2436
2017-07-10T06:22:14.700Z,2448
2017-07-10T06:22:40.188Z,2440
2017-07-10T06:23:05.648Z,2432
2017-07-10T06:23:31.130Z,2424
2017-07-10T06:23:56.626Z,2404
2017-07-10T06:24:22.047Z,2392
2017-07-10T06:24:47.518Z,2352
2017-07-10T06:25:13.003Z,2364
2017-07-10T06:25:38.498Z,2368
2017-07-10T06:26:03.973Z,2320
2017-07-10T06:26:29.441Z,2292
2017-07-10T06:26:54.912Z,2264
2017-07-10T06:27:20.370Z,2224
2017-07-10T06:27:45.814Z,2180
2017-07-10T06:28:11.281Z,2164
2017-07-10T06:28:36.754Z,2144
2017-07-10T06:29:02.223Z,2132
2017-07-10T06:29:27.706Z,2124
2017-07-10T06:29:53.171Z,2112
2017-07-10T06:30:18.680Z,2112
2017-07-10T06:30:44.159Z,2116
2017-07-10T06:31:09.614Z,2124
2017-07-10T06:31:35.078Z,2128
2017-07-10T06:32:00.581Z,2132
2017-07-10T06:32:26.051Z,2140
2017-07-10T06:32:51.542Z,2164
2017-07-10T06:33:17.073Z,2184
2017-07-10T06:33:42.480Z,2208
2017-07-10T06:34:07.952Z,2228
2017-07-10T06:34:33.439Z,2260
2017-07-10T06:34:58.936Z,2284
2017-07-10T06:35:24.403Z,2316
2017-07-10T06:35:49.888Z,2368
2017-07-10T06:36:15.389Z,2400
2017-07-10T06:36:40.847Z,2436
2017-07-10T06:37:06.307Z,2468
2017-07-10T06:37:31.816Z,2504
2017-07-10T06:37:57.252Z,2544
2017-07-10T06:38:22.713Z,2580
2017-07-10T06:38:48.203Z,2632
2017-07-10T06:39:13.679Z,2660
2017-07-10T06:39:39.193Z,2700
2017-07-10T06:40:04.629Z,2752
2017-07-10T06:40:30.080Z,2784
2017-07-10T06:40:55.561Z,2820
2017-07-10T06:41:21.030Z,2868
2017-07-10T06:41:46.523Z,2940
2017-07-10T06:42:11.978Z,2968
2017-07-10T06:42:37.438Z,2996
2017-07-10T06:43:02.902Z,3036
2017-07-10T06:43:28.364Z,3068
2017-07-10T06:43:53.836Z,3096
2017-07-10T06:44:19.311Z,3124
2017-07-10T06:44:44.785Z,3144
2017-07-10T06:45:10.276Z,3168
2017-07-10T06:45:35.759Z,3192
2017-07-10T06:46:01.228Z,3216
2017-07-10T06:46:26.668Z,3216
2017-07-10T06:46:52.135Z,3208
2017-07-10T06:47:17.607Z,3212
2017-07-10T06:47:43.107Z,3156
2017-07-10T06:48:08.574Z,3160
2017-07-10T06:48:34.066Z,3172
2017-07-10T06:48:59.566Z,3204
2017-07-10T06:49:25.078Z,3232
2017-07-10T06:49:50.509Z,3268
2017-07-10T06:50:16.011Z,3312
2017-07-10T06:50:41.463Z,3344
2017-07-10T06:51:06.946Z,3368
2017-07-10T06:51:32.400Z,3380
2017-07-10T06:51:57.856Z,3332
2017-07-10T06:52:23.354Z,3372
2017-07-10T06:52:48.799Z,3380
2017-07-10T06:53:14.294Z,3376
2017-07-10T06:53:39.748Z,3384
2017-07-10T06:54:05.231Z,3396
2017-07-10T06:54:30.680Z,3384
2017-07-10T06:54:56.180Z,3424
2017-07-10T06:55:21.637Z,3484
2017-07-10T06:55:47.122Z,3564
2017-07-10T06:56:12.592Z,3672
2017-07-10T06:56:38.083Z,3788
2017-07-10T06:57:03.609Z,3940
2017-07-10T06:57:29.042Z,4116
2017-07-10T06:57:54.505Z,4312
2017-07-10T06:58:20.044Z,4520
2017-07-10T06:58:45.532Z,4744
2017-07-10T06:59:11.061Z,4996
2017-07-10T06:59:36.555Z,5260
2017-07-10T07:00:02.034Z,5532
2017-07-10T07:00:27.512Z,5800
2017-07-10T07:00:52.970Z,6048
2017-07-10T07:01:18.423Z,6272
2017-07-10T07:01:43.874Z,6460
2017-07-10T07:02:09.338Z,6580
2017-07-10T07:02:34.796Z,6700
2017-07-10T07:03:00.230Z,6780
2017-07-10T07:03:25.728Z,6848
2017-07-10T07:03:51.209Z,6896
2017-07-10T07:04:16.649Z,6916
2017-07-10T07:04:42.139Z,6920
2017-07-10T07:05:07.626Z,6880
2017-07-10T07:05:33.120Z,6780
2017-07-10T07:05:58.594Z,6668
2017-07-10T07:06:24.075Z,6528
2017-07-10T07:06:49.541Z,6372
2017-07-10T07:07:15.018Z,6212
2017-07-10T07:07:40.506Z,6068
2017-07-10T07:08:06.008Z,5952
2017-07-10T07:08:31.476Z,5820
2017-07-10T07:08:56.927Z,5736
2017-07-10T07:09:22.404Z,5664
2017-07-10T07:09:47.855Z,5588
2017-07-10T07:10:13.381Z,5528
2017-07-10T07:10:38.862Z,5428
2017-07-10T07:11:04.378Z,5368
2017-07-10T07:11:29.817Z,5292
2017-07-10T07:11:55.312Z,5212
2017-07-10T07:12:20.775Z,5180
2017-07-10T07:12:46.214Z,5160
2017-07-10T07:13:11.700Z,5100
2017-07-10T07:13:37.195Z,5028
2017-07-10T07:14:02.668Z,4956
2017-07-10T07:14:28.146Z,4868
2017-07-10T07:14:53.629Z,4780
2017-07-10T07:15:19.126Z,4696
2017-07-10T07:15:44.593Z,4616
2017-07-10T07:16:10.056Z,4544
2017-07-10T07:16:35.539Z,4492
2017-07-10T07:17:01.012Z,4452
2017-07-10T07:17:26.452Z,4404
2017-07-10T07:17:51.927Z,4480
2017-07-10T07:18:17.403Z,4476
2017-07-10T07:18:42.879Z,4480
2017-07-10T07:19:08.346Z,4452
2017-07-10T07:19:33.803Z,4468
2017-07-10T07:19:59.262Z,4476
2017-07-10T07:20:24.715Z,4492
2017-07-10T07:20:50.195Z,4512
2017-07-10T07:21:15.639Z,4532
2017-07-10T07:21:41.088Z,4540
2017-07-10T07:22:06.569Z,4536
2017-07-10T07:22:32.025Z,4556
2017-07-10T07:22:57.468Z,4580
2017-07-10T07:23:22.949Z,4612
2017-07-10T07:23:48.413Z,4640
2017-07-10T07:24:13.890Z,4676
2017-07-10T07:24:39.356Z,4696
2017-07-10T07:25:04.830Z,4708
2017-07-10T07:25:30.345Z,4724
2017-07-10T07:25:55.792Z,4728
2017-07-10T07:26:21.265Z,4716
2017-07-10T07:26:46.750Z,4700
2017-07-10T07:27:12.235Z,4664
2017-07-10T07:27:37.726Z,4628
2017-07-10T07:28:03.176Z,4580
2017-07-10T07:28:28.668Z,4532
2017-07-10T07:28:54.121Z,4484
2017-07-10T07:29:19.609Z,4440
2017-07-10T07:29:45.061Z,4400
2017-07-10T07:30:10.532Z,4364
2017-07-10T07:30:36.033Z,4328
2017-07-10T07:31:01.478Z,4300
2017-07-10T07:31:26.994Z,4252
2017-07-10T07:31:52.470Z,4196
2017-07-10T07:32:17.935Z,4136
2017-07-10T07:32:43.392Z,4072
2017-07-10T07:33:08.849Z,3992
2017-07-10T07:33:34.334Z,3900
2017-07-10T07:33:59.785Z,3800
2017-07-10T07:34:25.240Z,3680
2017-07-10T07:34:50.720Z,3516
2017-07-10T07:35:16.216Z,3468
2017-07-10T07:35:41.718Z,3372
2017-07-10T07:36:07.196Z,3236
2017-07-10T07:36:32.662Z,3144
2017-07-10T07:36:58.127Z,3056
2017-07-10T07:37:23.591Z,2988
2017-07-10T07:37:49.096Z,2940
2017-07-10T07:38:14.553Z,2896
2017-07-10T07:38:40.045Z,2860
2017-07-10T07:39:05.524Z,2836
2017-07-10T07:39:31.038Z,2836
2017-07-10T07:39:56.512Z,2872
2017-07-10T07:40:21.980Z,2916
2017-07-10T07:40:47.442Z,2952
2017-07-10T07:41:12.936Z,2984
2017-07-10T07:41:38.463Z,3008
2017-07-10T07:42:03.905Z,3024
2017-07-10T07:42:29.384Z,3032
2017-07-10T07:42:54.842Z,3028
2017-07-10T07:43:20.314Z,3024
2017-07-10T07:43:45.799Z,3016
2017-07-10T07:44:11.295Z,3004
2017-07-10T07:44:36.744Z,2984
2017-07-10T07:45:02.229Z,2980
2017-07-10T07:45:27.683Z,2976
2017-07-10T07:45:53.145Z,2972
2017-07-10T07:46:18.626Z,2964
2017-07-10T07:46:44.089Z,2964
2017-07-10T07:47:09.550Z,2964
2017-07-10T07:47:35.024Z,2960
2017-07-10T07:48:00.461Z,2968
2017-07-10T07:48:26.004Z,2976
2017-07-10T07:48:51.462Z,2992
2017-07-10T07:49:16.966Z,3012
2017-07-10T07:49:42.414Z,3032
2017-07-10T07:50:07.904Z,3052
2017-07-10T07:50:33.352Z,3072
2017-07-10T07:50:58.814Z,3088
2017-07-10T07:51:24.328Z,3100
2017-07-10T07:51:49.812Z,3108
2017-07-10T07:52:15.295Z,3112
2017-07-10T07:52:40.742Z,3108
2017-07-10T07:53:06.233Z,3092
2017-07-10T07:53:31.728Z,3072
2017-07-10T07:53:57.224Z,3036
2017-07-10T07:54:22.732Z,3000
2017-07-10T07:54:48.185Z,2972
2017-07-10T07:55:13.671Z,2948
2017-07-10T07:55:39.147Z,2932
2017-07-10T07:56:04.662Z,2920
2017-07-10T07:56:30.164Z,2920
2017-07-10T07:56:55.634Z,2920
2017-07-10T07:57:21.126Z,2940
2017-07-10T07:57:46.589Z,2964
2017-07-10T07:58:12.076Z,2996
2017-07-10T07:58:37.541Z,3032
2017-07-10T07:59:03.022Z,3068
2017-07-10T07:59:28.466Z,3108
2017-07-10T07:59:53.965Z,3144
2017-07-10T08:00:19.432Z,3164
2017-07-10T08:00:44.908Z,3180
2017-07-10T08:01:10.381Z,3188
2017-07-10T08:01:35.818Z,3180
2017-07-10T08:02:01.318Z,3172
2017-07-10T08:02:26.812Z,3164
2017-07-10T08:02:52.300Z,3156
2017-07-10T08:03:17.744Z,3148
2017-07-10T08:03:43.212Z,3152
2017-07-10T08:04:08.696Z,3152
2017-07-10T08:04:34.177Z,3160
2017-07-10T08:04:59.654Z,3192
2017-07-10T08:05:25.143Z,3224
2017-07-10T08:05:50.620Z,3272
2017-07-10T08:06:16.099Z,3328
2017-07-10T08:06:41.586Z,3392
2017-07-10T08:07:07.106Z,3464
2017-07-10T08:07:32.567Z,3560
2017-07-10T08:07:58.051Z,3656
2017-07-10T08:08:23.600Z,3764
2017-07-10T08:08:49.056Z,3872
2017-07-10T08:09:14.524Z,3988
2017-07-10T08:09:40.006Z,4092
2017-07-10T08:10:05.465Z,4188
2017-07-10T08:10:30.902Z,4268
2017-07-10T08:10:56.405Z,4324
2017-07-10T08:11:21.912Z,4356
2017-07-10T08:11:47.350Z,4356
2017-07-10T08:12:12.890Z,4328
2017-07-10T08:12:38.348Z,4276
2017-07-10T08:13:03.776Z,4208
2017-07-10T08:13:29.238Z,4128
2017-07-10T08:13:54.713Z,4052
2017-07-10T08:14:20.172Z,3984
2017-07-10T08:14:45.695Z,3936
2017-07-10T08:15:11.180Z,3912
2017-07-10T08:15:36.684Z,3908
2017-07-10T08:16:02.175Z,3924
2017-07-10T08:16:27.645Z,3956
2017-07-10T08:16:53.139Z,3996
2017-07-10T08:17:18.597Z,4032
2017-07-10T08:17:44.062Z,4064
2017-07-10T08:18:09.555Z,4092
2017-07-10T08:18:35.015Z,4120
2017-07-10T08:19:00.449Z,4156
2017-07-10T08:19:25.909Z,4184
2017-07-10T08:19:51.364Z,4236
2017-07-10T08:20:16.845Z,4248
2017-07-10T08:20:42.289Z,4236
2017-07-10T08:21:07.797Z,4192
2017-07-10T08:21:33.212Z,4112
2017-07-10T08:21:58.719Z,4004
2017-07-10T08:22:24.161Z,3868
2017-07-10T08:22:49.616Z,3728
2017-07-10T08:23:15.104Z,3580
2017-07-10T08:23:40.572Z,3440
2017-07-10T08:24:06.044Z,3312
2017-07-10T08:24:31.512Z,3196
2017-07-10T08:24:56.957Z,3100
2017-07-10T08:25:22.480Z,3012
2017-07-10T08:25:47.931Z,2944
2017-07-10T08:26:13.395Z,2884
2017-07-10T08:26:38.865Z,2832
2017-07-10T08:27:04.296Z,2788
2017-07-10T08:27:29.769Z,2752
2017-07-10T08:27:55.241Z,2724
2017-07-10T08:28:20.717Z,2708
2017-07-10T08:28:46.179Z,2692
2017-07-10T08:29:11.667Z,2688
2017-07-10T08:29:37.132Z,2692
2017-07-10T08:30:02.599Z,2700
2017-07-10T08:30:28.101Z,2716
2017-07-10T08:30:53.610Z,2736
2017-07-10T08:31:19.055Z,2768
2017-07-10T08:31:44.555Z,2796
2017-07-10T08:32:10.014Z,2824
2017-07-10T08:32:35.452Z,2848
2017-07-10T08:33:00.947Z,2872
2017-07-10T08:33:26.446Z,2896
2017-07-10T08:33:51.894Z,2916
2017-07-10T08:34:17.367Z,2932
2017-07-10T08:34:42.838Z,2944
2017-07-10T08:35:08.321Z,2956
2017-07-10T08:35:33.791Z,2972
2017-07-10T08:35:59.279Z,2988
2017-07-10T08:36:24.767Z,3008
2017-07-10T08:36:50.252Z,3028
2017-07-10T08:37:15.754Z,3052
2017-07-10T08:37:41.232Z,3084
2017-07-10T08:38:06.723Z,3108
2017-07-10T08:38:32.191Z,3136
2017-07-10T08:38:57.652Z,3164
2017-07-10T08:39:23.134Z,3184
2017-07-10T08:39:48.629Z,3208
2017-07-10T08:40:14.117Z,3220
2017-07-10T08:40:39.607Z,3224
2017-07-10T08:41:05.092Z,3216
2017-07-10T08:41:30.548Z,3200
2017-07-10T08:41:56.032Z,3176
2017-07-10T08:42:21.518Z,3152
2017-07-10T08:42:46.967Z,3124
2017-07-10T08:43:12.437Z,3108
2017-07-10T08:43:37.922Z,3092
2017-07-10T08:44:03.389Z,3096
2017-07-10T08:44:28.859Z,3108
2017-07-10T08:44:54.308Z,3136
2017-07-10T08:45:19.801Z,3172
2017-07-10T08:45:45.252Z,3208
2017-07-10T08:46:10.714Z,3256
2017-07-10T08:46:36.166Z,3296
2017-07-10T08:47:01.654Z,3344
2017-07-10T08:47:27.103Z,3392
2017-07-10T08:47:52.584Z,3436
2017-07-10T08:48:18.078Z,3484
2017-07-10T08:48:43.591Z,3528
2017-07-10T08:49:09.082Z,3584
2017-07-10T08:49:34.571Z,3636
2017-07-10T08:50:00.053Z,3696
2017-07-10T08:50:25.495Z,3760
2017-07-10T08:50:50.956Z,3816
2017-07-10T08:51:16.431Z,3868
2017-07-10T08:51:41.922Z,3904
2017-07-10T08:52:07.373Z,3924
2017-07-10T08:52:32.828Z,3936
2017-07-10T08:52:58.289Z,3940
2017-07-10T08:53:23.755Z,3952
2017-07-10T08:53:49.236Z,3972
2017-07-10T08:54:14.733Z,4016
2017-07-10T08:54:40.202Z,4076
2017-07-10T08:55:05.700Z,4140
2017-07-10T08:55:31.190Z,4204
2017-07-10T08:55:56.676Z,4272
2017-07-10T08:56:22.155Z,4348
2017-07-10T08:56:47.641Z,4432
2017-07-10T08:57:13.078Z,4540
2017-07-10T08:57:38.556Z,4672
2017-07-10T08:58:04.044Z,4808
2017-07-10T08:58:29.564Z,4948
2017-07-10T08:58:55.015Z,5092
2017-07-10T08:59:20.513Z,5232
2017-07-10T08:59:45.964Z,5360
2017-07-10T09:00:11.456Z,5480
2017-07-10T09:00:36.944Z,5596
2017-07-10T09:01:02.412Z,5712
2017-07-10T09:01:27.901Z,5832
2017-07-10T09:01:53.378Z,5976
2017-07-10T09:02:18.853Z,6116
2017-07-10T09:02:44.317Z,6284
2017-07-10T09:03:09.770Z,6452
2017-07-10T09:03:35.239Z,6604
2017-07-10T09:04:00.692Z,6728
2017-07-10T09:04:26.150Z,6820
2017-07-10T09:04:51.602Z,6896
2017-07-10T09:05:17.085Z,6972
2017-07-10T09:05:42.546Z,7028
2017-07-10T09:06:07.994Z,7060
2017-07-10T09:06:33.435Z,7064
2017-07-10T09:06:58.905Z,7052
2017-07-10T09:07:24.371Z,7024
2017-07-10T09:07:49.857Z,6984
2017-07-10T09:08:15.317Z,6940
2017-07-10T09:08:40.802Z,6896
2017-07-10T09:09:06.280Z,6868
2017-07-10T09:09:31.742Z,6840
2017-07-10T09:09:57.256Z,6836
2017-07-10T09:10:22.737Z,6844
2017-07-10T09:10:48.202Z,6876
2017-07-10T09:11:13.713Z,6932
2017-07-10T09:11:39.211Z,7024
2017-07-10T09:12:04.695Z,7148
2017-07-10T09:12:30.175Z,7320
2017-07-10T09:12:55.647Z,7532
2017-07-10T09:13:21.105Z,7752
2017-07-10T09:13:46.587Z,7964
2017-07-10T09:14:12.059Z,8156
2017-07-10T09:14:37.558Z,8316
2017-07-10T09:15:03.048Z,8456
2017-07-10T09:15:28.551Z,8556
2017-07-10T09:15:54.040Z,8636
2017-07-10T09:16:19.514Z,8688
2017-07-10T09:16:44.979Z,8736
2017-07-10T09:17:10.446Z,8756
2017-07-10T09:17:35.895Z,8780
2017-07-10T09:18:01.387Z,8784
2017-07-10T09:18:26.868Z,8756
2017-07-10T09:18:52.333Z,8708
2017-07-10T09:19:17.880Z,8652
2017-07-10T09:19:43.294Z,8588
2017-07-10T09:20:08.796Z,8508
2017-07-10T09:20:34.269Z,8424
2017-07-10T09:20:59.741Z,8332
2017-07-10T09:21:25.231Z,8256
2017-07-10T09:21:50.717Z,8196
2017-07-10T09:22:16.219Z,8168
2017-07-10T09:23:39.691Z,8204
2017-07-10T09:24:05.163Z,8280
2017-07-10T09:24:30.652Z,8384
2017-07-10T09:24:56.154Z,8504
2017-07-10T09:25:21.643Z,8632
2017-07-10T09:25:47.098Z,8736
2017-07-10T09:26:12.572Z,8836
2017-07-10T09:26:38.067Z,8920
2017-07-10T09:27:03.541Z,9004
2017-07-10T09:27:29.009Z,9084
2017-07-10T09:27:54.467Z,9160
2017-07-10T09:28:19.934Z,9240
2017-07-10T09:28:45.384Z,9304
2017-07-10T09:29:10.834Z,9324
2017-07-10T09:29:36.305Z,9324
2017-07-10T09:30:01.772Z,9312
2017-07-10T09:30:27.227Z,9320
2017-07-10T09:30:52.704Z,9352
2017-07-10T09:31:18.177Z,9364
2017-07-10T09:31:43.647Z,9380
2017-07-10T09:32:09.114Z,9396
2017-07-10T09:32:34.573Z,9396
2017-07-10T09:33:00.037Z,9376
2017-07-10T09:33:25.488Z,9360
2017-07-10T09:33:50.972Z,9348
2017-07-10T09:34:16.481Z,9340
2017-07-10T09:34:41.991Z,9328
2017-07-10T09:35:07.487Z,9328
2017-07-10T09:35:32.958Z,9356
2017-07-10T09:35:58.415Z,9380
2017-07-10T09:36:23.891Z,9432
2017-07-10T09:36:49.392Z,9492
2017-07-10T09:37:14.902Z,9576
2017-07-10T09:37:40.408Z,9632
2017-07-10T09:38:05.866Z,9644
2017-07-10T09:38:31.303Z,9620
2017-07-10T09:38:56.777Z,9560
2017-07-10T09:39:22.272Z,9444
2017-07-10T09:39:47.763Z,9340
2017-07-10T09:40:13.216Z,9252
2017-07-10T09:40:38.695Z,9204
2017-07-10T09:41:04.180Z,9104
2017-07-10T09:41:29.655Z,9248
2017-07-10T09:41:55.158Z,9320
2017-07-10T09:42:20.621Z,9416
2017-07-10T09:42:46.102Z,9508
2017-07-10T09:43:11.585Z,9580
2017-07-10T09:43:37.042Z,9616
2017-07-10T09:44:02.523Z,9612
2017-07-10T09:44:27.988Z,9592
2017-07-10T09:44:53.441Z,9572
2017-07-10T09:45:18.936Z,9560
2017-07-10T09:45:44.429Z,9564
2017-07-10T09:46:09.877Z,9600
2017-07-10T09:46:35.382Z,9664
2017-07-10T09:47:00.871Z,9756
2017-07-10T09:47:26.385Z,9864
2017-07-10T09:47:51.858Z,9968
2017-07-10T09:48:17.345Z,10076
2017-07-10T09:48:42.877Z,10168
2017-07-10T09:49:08.437Z,10264
2017-07-10T09:49:33.923Z,10340
2017-07-10T09:49:59.436Z,10400
2017-07-10T09:50:24.908Z,10476
2017-07-10T09:50:50.414Z,10552
2017-07-10T09:51:15.896Z,10644
2017-07-10T09:51:41.370Z,10756
2017-07-10T09:52:06.820Z,10868
2017-07-10T09:52:32.285Z,10972
2017-07-10T09:52:57.785Z,11072
2017-07-10T09:53:23.267Z,11176
2017-07-10T09:53:48.804Z,11260
2017-07-10T09:54:14.295Z,11336
2017-07-10T09:54:39.762Z,11404
2017-07-10T09:55:05.231Z,11456
2017-07-10T09:55:30.769Z,11460
2017-07-10T09:55:56.245Z,11460
2017-07-10T09:56:21.701Z,11460
2017-07-10T09:56:47.191Z,11452
2017-07-10T09:57:12.688Z,11428
2017-07-10T09:57:38.185Z,11372
2017-07-10T09:58:03.626Z,11336
2017-07-10T09:58:29.104Z,11324
2017-07-10T09:58:54.564Z,11420
2017-07-10T09:59:20.041Z,11540
2017-07-10T09:59:45.500Z,11668
2017-07-10T10:00:10.980Z,11716
2017-07-10T10:00:36.412Z,11608
2017-07-10T10:01:01.908Z,11576
2017-07-10T10:01:27.379Z,11584
2017-07-10T10:01:52.939Z,11560
2017-07-10T10:02:18.375Z,11556
2017-07-10T10:02:43.849Z,11628
2017-07-10T10:03:09.340Z,11908
2017-07-10T10:03:34.815Z,12188
2017-07-10T10:04:00.293Z,11992
2017-07-10T10:04:25.791Z,11676
2017-07-10T10:04:51.227Z,11352
2017-07-10T10:05:16.716Z,11284
2017-07-10T10:05:42.219Z,11168
2017-07-10T10:06:07.710Z,11036
2017-07-10T10:06:33.172Z,10860
2017-07-10T10:06:58.633Z,10680
2017-07-10T10:07:24.099Z,10612
2017-07-10T10:07:49.573Z,10724
2017-07-10T10:08:15.090Z,10740
2017-07-10T10:08:40.589Z,11036
2017-07-10T10:09:06.090Z,11668
2017-07-10T10:09:31.585Z,11776
2017-07-10T10:09:57.083Z,11876
2017-07-10T10:10:22.571Z,11684
2017-07-10T10:10:48.067Z,11464
2017-07-10T10:11:13.530Z,11060
2017-07-10T10:11:38.979Z,10828
2017-07-10T10:12:04.468Z,10204
2017-07-10T10:12:29.922Z,9940
2017-07-10T10:12:55.365Z,9096
2017-07-10T10:13:20.855Z,8812
2017-07-10T10:13:46.312Z,8340
2017-07-10T10:14:11.804Z,7680
2017-07-10T10:14:37.259Z,7100
2017-07-10T10:15:02.743Z,6652
2017-07-10T10:15:28.222Z,6920
2017-07-10T10:15:53.687Z,7208
2017-07-10T10:16:19.181Z,7576
2017-07-10T10:16:44.728Z,7812
2017-07-10T10:17:10.198Z,7592
2017-07-10T10:17:35.676Z,7448
2017-07-10T10:18:01.136Z,7468
2017-07-10T10:18:26.590Z,7472
2017-07-10T10:18:52.087Z,7444
2017-07-10T10:19:17.532Z,7580
2017-07-10T10:19:43.057Z,7668
2017-07-10T10:20:08.537Z,7672
2017-07-10T10:20:34.014Z,7720
2017-07-10T10:20:59.473Z,7776
2017-07-10T10:21:24.997Z,6960
2017-07-10T10:21:50.479Z,6688
2017-07-10T10:22:15.963Z,6360
2017-07-10T10:22:41.458Z,5916
2017-07-10T10:23:06.967Z,5996
2017-07-10T10:23:32.423Z,6212
2017-07-10T10:23:57.930Z,6660
2017-07-10T10:24:23.399Z,7136
2017-07-10T10:24:48.872Z,7804
2017-07-10T10:25:14.312Z,8440
2017-07-10T10:25:39.755Z,8248
2017-07-10T10:26:05.227Z,8736
2017-07-10T10:26:30.691Z,9160
2017-07-10T10:26:56.146Z,9844
2017-07-10T10:27:21.638Z,10188
2017-07-10T10:27:47.218Z,10252
2017-07-10T10:28:12.764Z,10848
2017-07-10T10:28:38.247Z,11592
2017-07-10T10:29:03.763Z,12292
2017-07-10T10:29:29.237Z,12948
2017-07-10T10:29:54.712Z,13348
2017-07-10T10:30:20.194Z,13208
2017-07-10T10:30:45.661Z,13616
2017-07-10T10:31:11.167Z,13596
2017-07-10T10:31:36.630Z,13996
2017-07-10T10:32:02.116Z,14500
2017-07-10T10:32:27.581Z,14460
2017-07-10T10:32:53.040Z,15652
2017-07-10T10:33:18.509Z,14772
2017-07-10T10:33:43.998Z,14124
2017-07-10T10:34:09.509Z,13816
2017-07-10T10:34:34.980Z,13572
2017-07-10T10:35:00.426Z,13480
2017-07-10T10:35:25.865Z,13396
2017-07-10T10:35:51.357Z,13292
2017-07-10T10:36:16.845Z,13248
2017-07-10T10:36:42.342Z,13164
2017-07-10T10:37:07.859Z,13064
2017-07-10T10:37:33.340Z,12948
2017-07-10T10:37:58.807Z,12856
2017-07-10T10:38:24.292Z,12772
2017-07-10T10:38:49.783Z,12644
2017-07-10T10:39:15.320Z,12420
2017-07-10T10:39:40.765Z,12156
2017-07-10T10:40:06.259Z,11868
2017-07-10T10:40:31.686Z,11524
2017-07-10T10:40:57.156Z,11116
2017-07-10T10:41:22.630Z,10812
2017-07-10T10:41:48.075Z,10456
2017-07-10T10:42:13.568Z,10196
2017-07-10T10:42:39.074Z,10028
2017-07-10T10:43:04.562Z,9880
2017-07-10T10:43:30.054Z,9740
2017-07-10T10:43:55.515Z,9740
2017-07-10T10:44:20.978Z,9688
2017-07-10T10:44:46.474Z,9612
2017-07-10T10:45:11.938Z,9508
2017-07-10T10:45:37.403Z,9396
2017-07-10T10:46:02.896Z,9368
2017-07-10T10:46:28.395Z,9424
2017-07-10T10:46:53.867Z,9448
2017-07-10T10:47:19.365Z,9444
2017-07-10T10:47:44.838Z,9400
2017-07-10T10:48:10.341Z,9352
2017-07-10T10:48:35.808Z,9352
2017-07-10T10:49:01.308Z,9340
2017-07-10T10:49:26.793Z,9336
2017-07-10T10:49:52.270Z,9328
2017-07-10T10:50:17.748Z,9304
2017-07-10T10:50:43.230Z,9264
2017-07-10T10:51:08.707Z,9236
2017-07-10T10:51:34.164Z,9196
2017-07-10T10:51:59.659Z,9116
2017-07-10T10:52:25.131Z,8992
2017-07-10T10:52:50.634Z,8896
2017-07-10T10:53:16.144Z,8752
2017-07-10T10:53:41.640Z,8652
2017-07-10T10:54:07.113Z,8608
2017-07-10T10:54:32.560Z,8552
2017-07-10T10:54:58.040Z,8536
2017-07-10T10:55:23.510Z,8544
2017-07-10T10:55:49.011Z,8588
2017-07-10T10:56:14.494Z,8668
2017-07-10T10:56:39.987Z,8756
2017-07-10T10:57:05.465Z,8844
2017-07-10T10:57:30.948Z,8928
2017-07-10T10:57:56.433Z,9004
2017-07-10T10:58:21.937Z,9072
2017-07-10T10:58:47.416Z,9140
2017-07-10T10:59:12.883Z,9184
2017-07-10T10:59:38.333Z,9192
2017-07-10T11:00:03.841Z,9152
2017-07-10T11:00:29.307Z,9104
2017-07-10T11:00:54.811Z,9048
2017-07-10T11:01:20.260Z,8916
2017-07-10T11:01:45.756Z,8692
2017-07-10T11:02:11.217Z,8312
2017-07-10T11:02:36.725Z,7872
2017-07-10T11:03:02.214Z,7508
2017-07-10T11:03:27.695Z,7308
2017-07-10T11:03:53.184Z,7244
2017-07-10T11:04:18.642Z,7320
2017-07-10T11:04:44.173Z,7348
2017-07-10T11:05:09.677Z,7580
2017-07-10T11:05:35.151Z,7764
2017-07-10T11:06:00.605Z,7956
2017-07-10T11:06:26.103Z,8172
2017-07-10T11:06:51.574Z,8392
2017-07-10T11:07:17.049Z,8700
2017-07-10T11:07:42.561Z,8904
2017-07-10T11:09:06.055Z,9356
2017-07-10T11:09:31.536Z,9144
2017-07-10T11:09:56.998Z,8852
2017-07-10T11:10:22.479Z,8280
2017-07-10T11:10:47.960Z,7520
2017-07-10T11:11:13.443Z,6928
2017-07-10T11:11:38.951Z,6528
2017-07-10T11:12:04.441Z,6284
2017-07-10T11:12:29.944Z,6116